Airfield :











YOU CAN JOIN US ON...

 
LOGIN :

Register | Disclaimer

   EN    FR    IT 

 









Legend :    VFR   Marginal VFR   IFR   Intensive IFR   Very Intensive IFR
Visi :
Ceiling :
>= 8 km
>= 3000ft
5 to 8 km
1000 to 3000 ft
1500m to 5 km
500 to 1000 ft
800 to 1500m
200 to 500 ft
< 800m
< 200 ft
Symbols :   Thunderstorms  Fog  Heavy snow  Heavy precipitations  Wind > 20 kt






- Airport Elevation : 2205 ft


KVGT - North Las Vegas

CURRENT METAR :
  • 171153Z AUTO 22004KT 10SM CLR 11/M02 A2997 RMK AO2 SLP157 T01061017 10139 20100 53001

EXPIRED METARs :
  • 171053Z AUTO 28006KT 10SM CLR 11/M03 A2995 RMK AO2 SLP153 T01061028
  • 170953Z AUTO 30005KT 10SM CLR 11/M03 A2997 RMK AO2 SLP158 T01061028
  • 170853Z AUTO 00000KT 10SM CLR 12/M02 A2996 RMK AO2 SLP156 T01221022 56002

TAF KVGT
Valid from the 17 at 12:00 until the 18 at 12:00 UTC


171143Z 1712/1812 33007KT P6SM SCT150 SCT250
FM171700 34012G19KT P6SM SCT130 BKN250
FM180200 33007KT P6SM FEW150 SCT250



MET'MAP, your aeronautical weather chart ! - Copyright ORBIFLY December 2007 - Disclaimer

ORBIFLY MET'MAP TEAM :

Programming & Development : Alexandra Zaïnal
Concept & original design : Baudouin d'Aumeries
Assistance for programming : Marc-Olivier Méhu
Technical & hardware support : Manuel Goepfert

Contact : metmap@orbifly.com




SOURCES & CREDITS :

   NOAA       Earth
Advisory